X  Sluiten METAR luchtvaart weer gegevens      EHKD De Kooy Airport
Temperatuur
12°C Temperatuur
8°C Dauwpunt
77% Vochtigheid



Wind
13 KM/U
8 MPH
4 M/S
7 KTS



240°
WZW
Huidig weer

Lichte Motregen Lichte Motregen
Luchtdruk 1016.93 (hPa) - 30.03 (inHg)
Zicht 6 (mijl) - 9.7 (km)
Vliegveld
Vliegveld code EHKD

Locatie : De Kooy Airport
Afstand: 34 (km)

Metar:
EHKD 130332Z AUTO 24007KT 210V270 9999 -DZ FEW016CB BKN023 OVC049 12/08 Q1017 WHT

Tijd: 13-06-2024 05:32 CEST